sensor_id;sensor_type;location;lat;lon;timestamp;P1;durP1;ratioP1;P2;durP2;ratioP2
25249;SDS011;13201;51.148;13.738;2023-07-16T00:02:03;2.83;;;2.37;;
25249;SDS011;13201;51.148;13.738;2023-07-16T00:04:30;4.20;;;2.65;;
25249;SDS011;13201;51.148;13.738;2023-07-16T00:07:01;4.78;;;2.90;;
25249;SDS011;13201;51.148;13.738;2023-07-16T00:09:27;6.15;;;3.08;;
25249;SDS011;13201;51.148;13.738;2023-07-16T00:11:53;5.60;;;2.80;;
25249;SDS011;13201;51.148;13.738;2023-07-16T00:14:19;7.77;;;3.03;;
25249;SDS011;13201;51.148;13.738;2023-07-16T00:16:45;3.43;;;2.93;;
25249;SDS011;13201;51.148;13.738;2023-07-16T00:19:11;4.57;;;2.93;;
25249;SDS011;13201;51.148;13.738;2023-07-16T00:21:37;5.47;;;2.85;;
25249;SDS011;13201;51.148;13.738;2023-07-16T00:24:03;3.53;;;2.58;;
25249;SDS011;13201;51.148;13.738;2023-07-16T00:26:29;8.77;;;2.73;;
25249;SDS011;13201;51.148;13.738;2023-07-16T00:28:55;5.90;;;2.80;;
25249;SDS011;13201;51.148;13.738;2023-07-16T00:31:21;7.83;;;2.60;;
25249;SDS011;13201;51.148;13.738;2023-07-16T00:33:46;6.33;;;3.20;;
25249;SDS011;13201;51.148;13.738;2023-07-16T00:36:12;8.47;;;3.57;;
25249;SDS011;13201;51.148;13.738;2023-07-16T00:38:38;4.93;;;2.47;;
25249;SDS011;13201;51.148;13.738;2023-07-16T00:41:05;6.32;;;2.63;;
25249;SDS011;13201;51.148;13.738;2023-07-16T00:43:31;3.17;;;2.33;;
25249;SDS011;13201;51.148;13.738;2023-07-16T00:45:56;3.95;;;2.92;;
25249;SDS011;13201;51.148;13.738;2023-07-16T00:48:23;6.78;;;2.50;;
25249;SDS011;13201;51.148;13.738;2023-07-16T00:50:49;3.17;;;2.47;;
25249;SDS011;13201;51.148;13.738;2023-07-16T00:53:17;3.38;;;2.42;;
25249;SDS011;13201;51.148;13.738;2023-07-16T00:58:09;4.80;;;2.72;;
25249;SDS011;13201;51.148;13.738;2023-07-16T01:00:36;5.53;;;2.40;;
25249;SDS011;13201;51.148;13.738;2023-07-16T01:03:05;6.43;;;2.50;;
25249;SDS011;13201;51.148;13.738;2023-07-16T01:29:41;2.55;;;1.50;;
25249;SDS011;13201;51.148;13.738;2023-07-16T01:32:08;2.95;;;1.38;;
25249;SDS011;13201;51.148;13.738;2023-07-16T01:34:36;4.90;;;1.42;;
25249;SDS011;13201;51.148;13.738;2023-07-16T01:37:04;1.85;;;1.10;;
25249;SDS011;13201;51.148;13.738;2023-07-16T01:39:31;2.85;;;1.40;;
25249;SDS011;13201;51.148;13.738;2023-07-16T01:41:58;1.50;;;1.30;;
25249;SDS011;13201;51.148;13.738;2023-07-16T01:44:23;6.30;;;1.55;;
25249;SDS011;13201;51.148;13.738;2023-07-16T01:46:59;2.00;;;1.20;;
25249;SDS011;13201;51.148;13.738;2023-07-16T01:49:33;1.52;;;1.10;;
25249;SDS011;13201;51.148;13.738;2023-07-16T01:51:59;3.45;;;1.15;;
25249;SDS011;13201;51.148;13.738;2023-07-16T01:54:26;2.42;;;1.20;;
25249;SDS011;13201;51.148;13.738;2023-07-16T01:56:52;2.72;;;0.80;;
25249;SDS011;13201;51.148;13.738;2023-07-16T01:59:17;2.03;;;1.40;;
25249;SDS011;13201;51.148;13.738;2023-07-16T02:01:43;1.23;;;1.02;;
25249;SDS011;13201;51.148;13.738;2023-07-16T02:04:09;1.93;;;1.10;;
25249;SDS011;13201;51.148;13.738;2023-07-16T02:06:34;3.60;;;1.08;;
25249;SDS011;13201;51.148;13.738;2023-07-16T02:09:00;0.85;;;0.82;;
25249;SDS011;13201;51.148;13.738;2023-07-16T02:11:26;1.33;;;0.90;;
25249;SDS011;13201;51.148;13.738;2023-07-16T02:13:51;3.38;;;1.25;;
25249;SDS011;13201;51.148;13.738;2023-07-16T02:16:17;1.60;;;1.03;;
25249;SDS011;13201;51.148;13.738;2023-07-16T02:18:42;1.37;;;0.77;;
25249;SDS011;13201;51.148;13.738;2023-07-16T02:21:08;1.27;;;0.87;;
25249;SDS011;13201;51.148;13.738;2023-07-16T02:23:34;2.00;;;1.00;;
25249;SDS011;13201;51.148;13.738;2023-07-16T02:26:00;4.50;;;1.23;;
25249;SDS011;13201;51.148;13.738;2023-07-16T02:28:26;2.03;;;0.98;;
25249;SDS011;13201;51.148;13.738;2023-07-16T02:30:52;4.03;;;1.10;;
25249;SDS011;13201;51.148;13.738;2023-07-16T02:33:17;2.92;;;1.30;;
25249;SDS011;13201;51.148;13.738;2023-07-16T02:35:47;2.67;;;1.10;;
25249;SDS011;13201;51.148;13.738;2023-07-16T02:38:19;6.07;;;1.00;;
25249;SDS011;13201;51.148;13.738;2023-07-16T02:40:45;4.23;;;1.23;;
25249;SDS011;13201;51.148;13.738;2023-07-16T02:43:12;1.67;;;0.98;;
25249;SDS011;13201;51.148;13.738;2023-07-16T02:45:38;3.30;;;1.53;;
25249;SDS011;13201;51.148;13.738;2023-07-16T02:48:04;3.47;;;1.17;;
25249;SDS011;13201;51.148;13.738;2023-07-16T02:50:33;4.20;;;1.33;;
25249;SDS011;13201;51.148;13.738;2023-07-16T02:53:05;2.85;;;0.80;;
25249;SDS011;13201;51.148;13.738;2023-07-16T02:55:32;1.98;;;0.93;;
25249;SDS011;13201;51.148;13.738;2023-07-16T02:58:00;2.10;;;1.15;;
25249;SDS011;13201;51.148;13.738;2023-07-16T03:00:29;2.90;;;0.90;;
25249;SDS011;13201;51.148;13.738;2023-07-16T03:02:55;1.75;;;0.80;;
25249;SDS011;13201;51.148;13.738;2023-07-16T03:05:21;2.97;;;0.77;;
25249;SDS011;13201;51.148;13.738;2023-07-16T03:07:47;2.20;;;1.10;;
25249;SDS011;13201;51.148;13.738;2023-07-16T03:10:12;2.20;;;1.15;;
25249;SDS011;13201;51.148;13.738;2023-07-16T03:12:38;3.70;;;0.90;;
25249;SDS011;13201;51.148;13.738;2023-07-16T03:15:04;3.65;;;0.95;;
25249;SDS011;13201;51.148;13.738;2023-07-16T03:17:30;2.27;;;0.90;;
25249;SDS011;13201;51.148;13.738;2023-07-16T03:19:55;3.13;;;0.95;;
25249;SDS011;13201;51.148;13.738;2023-07-16T03:22:21;2.95;;;1.10;;
25249;SDS011;13201;51.148;13.738;2023-07-16T03:24:46;4.38;;;1.38;;
25249;SDS011;13201;51.148;13.738;2023-07-16T03:27:12;6.03;;;1.27;;
25249;SDS011;13201;51.148;13.738;2023-07-16T03:29:38;3.07;;;1.00;;
25249;SDS011;13201;51.148;13.738;2023-07-16T03:32:04;3.42;;;1.48;;
25249;SDS011;13201;51.148;13.738;2023-07-16T03:34:29;4.33;;;1.47;;
25249;SDS011;13201;51.148;13.738;2023-07-16T03:36:55;2.20;;;1.30;;
25249;SDS011;13201;51.148;13.738;2023-07-16T03:39:21;3.92;;;1.48;;
25249;SDS011;13201;51.148;13.738;2023-07-16T03:41:46;2.90;;;1.08;;
25249;SDS011;13201;51.148;13.738;2023-07-16T03:44:12;3.00;;;1.38;;
25249;SDS011;13201;51.148;13.738;2023-07-16T03:46:38;4.63;;;1.45;;
25249;SDS011;13201;51.148;13.738;2023-07-16T03:49:06;4.85;;;1.42;;
25249;SDS011;13201;51.148;13.738;2023-07-16T03:51:32;3.70;;;1.20;;
25249;SDS011;13201;51.148;13.738;2023-07-16T03:53:58;2.28;;;1.40;;
25249;SDS011;13201;51.148;13.738;2023-07-16T03:56:23;2.28;;;1.10;;
25249;SDS011;13201;51.148;13.738;2023-07-16T03:58:49;2.95;;;1.00;;
25249;SDS011;13201;51.148;13.738;2023-07-16T04:01:15;2.20;;;1.33;;
25249;SDS011;13201;51.148;13.738;2023-07-16T04:03:40;3.95;;;1.38;;
25249;SDS011;13201;51.148;13.738;2023-07-16T04:06:07;4.07;;;1.52;;
25249;SDS011;13201;51.148;13.738;2023-07-16T04:08:36;2.33;;;1.40;;
25249;SDS011;13201;51.148;13.738;2023-07-16T04:11:03;3.13;;;1.50;;
25249;SDS011;13201;51.148;13.738;2023-07-16T04:13:29;6.85;;;1.73;;
25249;SDS011;13201;51.148;13.738;2023-07-16T04:15:55;4.17;;;1.60;;
25249;SDS011;13201;51.148;13.738;2023-07-16T04:18:22;2.17;;;1.60;;
25249;SDS011;13201;51.148;13.738;2023-07-16T04:20:51;3.88;;;1.98;;
25249;SDS011;13201;51.148;13.738;2023-07-16T04:23:16;3.10;;;1.77;;
25249;SDS011;13201;51.148;13.738;2023-07-16T04:25:42;2.35;;;1.48;;
25249;SDS011;13201;51.148;13.738;2023-07-16T04:28:09;3.28;;;1.60;;
25249;SDS011;13201;51.148;13.738;2023-07-16T04:30:35;3.13;;;1.50;;
25249;SDS011;13201;51.148;13.738;2023-07-16T04:33:02;3.88;;;1.30;;
25249;SDS011;13201;51.148;13.738;2023-07-16T04:35:28;3.33;;;1.50;;
25249;SDS011;13201;51.148;13.738;2023-07-16T04:37:54;3.00;;;1.30;;
25249;SDS011;13201;51.148;13.738;2023-07-16T04:40:20;2.00;;;1.25;;
25249;SDS011;13201;51.148;13.738;2023-07-16T04:42:46;3.65;;;1.30;;
25249;SDS011;13201;51.148;13.738;2023-07-16T04:45:11;2.67;;;1.52;;
25249;SDS011;13201;51.148;13.738;2023-07-16T04:47:37;3.28;;;1.42;;
25249;SDS011;13201;51.148;13.738;2023-07-16T04:50:03;2.78;;;1.40;;
25249;SDS011;13201;51.148;13.738;2023-07-16T04:52:30;4.15;;;1.63;;
25249;SDS011;13201;51.148;13.738;2023-07-16T04:54:55;4.03;;;1.58;;
25249;SDS011;13201;51.148;13.738;2023-07-16T04:57:21;4.80;;;1.73;;
25249;SDS011;13201;51.148;13.738;2023-07-16T04:59:47;3.45;;;1.92;;
25249;SDS011;13201;51.148;13.738;2023-07-16T05:02:12;4.55;;;1.60;;
25249;SDS011;13201;51.148;13.738;2023-07-16T05:04:40;4.82;;;1.92;;
25249;SDS011;13201;51.148;13.738;2023-07-16T05:07:06;2.28;;;1.40;;
25249;SDS011;13201;51.148;13.738;2023-07-16T05:09:32;2.30;;;1.60;;
25249;SDS011;13201;51.148;13.738;2023-07-16T05:11:58;2.08;;;1.50;;
25249;SDS011;13201;51.148;13.738;2023-07-16T05:14:26;3.60;;;1.70;;
25249;SDS011;13201;51.148;13.738;2023-07-16T05:16:53;1.95;;;1.15;;
25249;SDS011;13201;51.148;13.738;2023-07-16T05:19:18;1.52;;;1.25;;
25249;SDS011;13201;51.148;13.738;2023-07-16T05:21:44;5.38;;;1.50;;
25249;SDS011;13201;51.148;13.738;2023-07-16T05:24:10;3.13;;;1.50;;
25249;SDS011;13201;51.148;13.738;2023-07-16T05:26:35;1.77;;;1.33;;
25249;SDS011;13201;51.148;13.738;2023-07-16T05:29:01;2.20;;;1.20;;
25249;SDS011;13201;51.148;13.738;2023-07-16T05:31:27;2.53;;;1.42;;
25249;SDS011;13201;51.148;13.738;2023-07-16T05:33:52;5.97;;;1.42;;
25249;SDS011;13201;51.148;13.738;2023-07-16T05:36:18;4.40;;;1.75;;
25249;SDS011;13201;51.148;13.738;2023-07-16T05:38:44;3.40;;;1.50;;
25249;SDS011;13201;51.148;13.738;2023-07-16T05:41:09;3.70;;;1.35;;
25249;SDS011;13201;51.148;13.738;2023-07-16T05:43:35;8.27;;;1.90;;
25249;SDS011;13201;51.148;13.738;2023-07-16T05:46:01;3.88;;;1.67;;
25249;SDS011;13201;51.148;13.738;2023-07-16T05:48:27;3.53;;;1.67;;
25249;SDS011;13201;51.148;13.738;2023-07-16T05:50:52;3.45;;;1.77;;
25249;SDS011;13201;51.148;13.738;2023-07-16T05:53:18;3.60;;;1.70;;
25249;SDS011;13201;51.148;13.738;2023-07-16T05:55:44;2.53;;;1.50;;
25249;SDS011;13201;51.148;13.738;2023-07-16T05:58:10;3.08;;;1.73;;
25249;SDS011;13201;51.148;13.738;2023-07-16T06:00:36;1.50;;;1.25;;
25249;SDS011;13201;51.148;13.738;2023-07-16T06:03:02;2.67;;;1.40;;
25249;SDS011;13201;51.148;13.738;2023-07-16T06:05:28;2.47;;;1.50;;
25249;SDS011;13201;51.148;13.738;2023-07-16T06:07:57;4.03;;;1.70;;
25249;SDS011;13201;51.148;13.738;2023-07-16T06:10:23;1.80;;;1.58;;
25249;SDS011;13201;51.148;13.738;2023-07-16T06:12:49;1.70;;;1.50;;
25249;SDS011;13201;51.148;13.738;2023-07-16T06:15:15;3.78;;;1.77;;
25249;SDS011;13201;51.148;13.738;2023-07-16T06:17:40;2.13;;;1.58;;
25249;SDS011;13201;51.148;13.738;2023-07-16T06:20:06;2.40;;;1.50;;
25249;SDS011;13201;51.148;13.738;2023-07-16T06:22:33;3.53;;;1.48;;
25249;SDS011;13201;51.148;13.738;2023-07-16T06:24:58;3.53;;;1.58;;
25249;SDS011;13201;51.148;13.738;2023-07-16T06:27:24;2.45;;;1.38;;
25249;SDS011;13201;51.148;13.738;2023-07-16T06:29:50;2.05;;;1.20;;
25249;SDS011;13201;51.148;13.738;2023-07-16T06:32:16;1.92;;;1.42;;
25249;SDS011;13201;51.148;13.738;2023-07-16T06:34:42;4.35;;;1.42;;
25249;SDS011;13201;51.148;13.738;2023-07-16T06:37:07;1.95;;;1.23;;
25249;SDS011;13201;51.148;13.738;2023-07-16T06:39:33;2.63;;;1.52;;
25249;SDS011;13201;51.148;13.738;2023-07-16T06:41:59;2.90;;;1.33;;
25249;SDS011;13201;51.148;13.738;2023-07-16T06:44:24;1.77;;;1.23;;
25249;SDS011;13201;51.148;13.738;2023-07-16T06:46:50;4.18;;;1.45;;
25249;SDS011;13201;51.148;13.738;2023-07-16T06:49:16;3.22;;;1.58;;
25249;SDS011;13201;51.148;13.738;2023-07-16T06:51:41;1.63;;;1.33;;
25249;SDS011;13201;51.148;13.738;2023-07-16T06:54:07;2.10;;;1.30;;
25249;SDS011;13201;51.148;13.738;2023-07-16T06:56:33;3.72;;;1.40;;
25249;SDS011;13201;51.148;13.738;2023-07-16T06:58:58;2.03;;;1.27;;
25249;SDS011;13201;51.148;13.738;2023-07-16T07:01:24;3.05;;;1.38;;
25249;SDS011;13201;51.148;13.738;2023-07-16T07:03:52;4.30;;;1.40;;
25249;SDS011;13201;51.148;13.738;2023-07-16T07:06:18;1.67;;;1.43;;
25249;SDS011;13201;51.148;13.738;2023-07-16T07:08:44;3.45;;;1.48;;
25249;SDS011;13201;51.148;13.738;2023-07-16T07:11:10;1.90;;;1.23;;
25249;SDS011;13201;51.148;13.738;2023-07-16T07:13:35;2.00;;;1.37;;
25249;SDS011;13201;51.148;13.738;2023-07-16T07:16:01;3.00;;;1.40;;
25249;SDS011;13201;51.148;13.738;2023-07-16T07:18:27;2.05;;;1.25;;
25249;SDS011;13201;51.148;13.738;2023-07-16T07:20:52;1.92;;;1.40;;
25249;SDS011;13201;51.148;13.738;2023-07-16T07:23:18;1.42;;;1.25;;
25249;SDS011;13201;51.148;13.738;2023-07-16T07:25:48;1.93;;;1.63;;
25249;SDS011;13201;51.148;13.738;2023-07-16T07:28:15;2.40;;;1.67;;
25249;SDS011;13201;51.148;13.738;2023-07-16T07:30:41;5.18;;;1.60;;
25249;SDS011;13201;51.148;13.738;2023-07-16T07:33:06;3.90;;;1.40;;
25249;SDS011;13201;51.148;13.738;2023-07-16T07:35:32;2.13;;;1.33;;
25249;SDS011;13201;51.148;13.738;2023-07-16T07:37:57;2.33;;;1.47;;
25249;SDS011;13201;51.148;13.738;2023-07-16T07:40:23;2.55;;;1.58;;
25249;SDS011;13201;51.148;13.738;2023-07-16T07:42:50;3.95;;;1.67;;
25249;SDS011;13201;51.148;13.738;2023-07-16T07:45:15;3.42;;;1.50;;
25249;SDS011;13201;51.148;13.738;2023-07-16T07:47:41;1.63;;;1.20;;
25249;SDS011;13201;51.148;13.738;2023-07-16T07:50:07;2.10;;;1.30;;
25249;SDS011;13201;51.148;13.738;2023-07-16T07:52:33;3.43;;;1.50;;
25249;SDS011;13201;51.148;13.738;2023-07-16T07:54:58;2.15;;;1.38;;
25249;SDS011;13201;51.148;13.738;2023-07-16T07:57:24;4.30;;;1.40;;
25249;SDS011;13201;51.148;13.738;2023-07-16T07:59:49;2.78;;;1.35;;
25249;SDS011;13201;51.148;13.738;2023-07-16T08:02:20;3.92;;;1.60;;
25249;SDS011;13201;51.148;13.738;2023-07-16T08:04:48;5.32;;;1.67;;
25249;SDS011;13201;51.148;13.738;2023-07-16T08:07:13;5.05;;;1.50;;
25249;SDS011;13201;51.148;13.738;2023-07-16T08:09:39;3.40;;;1.60;;
25249;SDS011;13201;51.148;13.738;2023-07-16T08:12:05;4.10;;;1.80;;
25249;SDS011;13201;51.148;13.738;2023-07-16T08:14:31;3.93;;;1.87;;
25249;SDS011;13201;51.148;13.738;2023-07-16T08:16:57;6.05;;;1.70;;
25249;SDS011;13201;51.148;13.738;2023-07-16T08:19:23;2.78;;;1.40;;
25249;SDS011;13201;51.148;13.738;2023-07-16T08:21:48;2.17;;;1.47;;
25249;SDS011;13201;51.148;13.738;2023-07-16T08:24:14;2.93;;;1.43;;
25249;SDS011;13201;51.148;13.738;2023-07-16T08:26:40;2.65;;;1.48;;
25249;SDS011;13201;51.148;13.738;2023-07-16T08:29:05;4.23;;;1.40;;
25249;SDS011;13201;51.148;13.738;2023-07-16T08:31:31;2.15;;;1.52;;
25249;SDS011;13201;51.148;13.738;2023-07-16T08:33:57;3.17;;;1.70;;
25249;SDS011;13201;51.148;13.738;2023-07-16T08:36:22;3.10;;;1.70;;
25249;SDS011;13201;51.148;13.738;2023-07-16T08:38:48;2.27;;;1.50;;
25249;SDS011;13201;51.148;13.738;2023-07-16T08:41:14;3.07;;;1.73;;
25249;SDS011;13201;51.148;13.738;2023-07-16T08:43:40;4.60;;;1.50;;
25249;SDS011;13201;51.148;13.738;2023-07-16T08:46:06;4.00;;;1.42;;
25249;SDS011;13201;51.148;13.738;2023-07-16T08:50:59;5.97;;;1.50;;
25249;SDS011;13201;51.148;13.738;2023-07-16T08:53:27;3.78;;;1.58;;
25249;SDS011;13201;51.148;13.738;2023-07-16T08:55:53;4.30;;;1.60;;
25249;SDS011;13201;51.148;13.738;2023-07-16T08:58:19;2.43;;;1.40;;
25249;SDS011;13201;51.148;13.738;2023-07-16T09:00:48;2.85;;;1.48;;
25249;SDS011;13201;51.148;13.738;2023-07-16T09:03:14;2.08;;;1.50;;
25249;SDS011;13201;51.148;13.738;2023-07-16T09:05:41;3.03;;;1.60;;
25249;SDS011;13201;51.148;13.738;2023-07-16T09:08:08;4.80;;;1.70;;
25249;SDS011;13201;51.148;13.738;2023-07-16T09:10:35;1.75;;;1.35;;
25249;SDS011;13201;51.148;13.738;2023-07-16T09:13:01;6.45;;;1.52;;
25249;SDS011;13201;51.148;13.738;2023-07-16T09:15:27;2.57;;;1.50;;
25249;SDS011;13201;51.148;13.738;2023-07-16T09:17:54;4.13;;;1.58;;
25249;SDS011;13201;51.148;13.738;2023-07-16T09:20:20;3.65;;;1.77;;
25249;SDS011;13201;51.148;13.738;2023-07-16T09:22:48;3.67;;;1.90;;
25249;SDS011;13201;51.148;13.738;2023-07-16T09:25:14;3.80;;;1.40;;
25249;SDS011;13201;51.148;13.738;2023-07-16T09:27:40;2.47;;;1.50;;
25249;SDS011;13201;51.148;13.738;2023-07-16T09:30:06;3.03;;;1.40;;
25249;SDS011;13201;51.148;13.738;2023-07-16T09:32:35;2.58;;;1.50;;
25249;SDS011;13201;51.148;13.738;2023-07-16T09:35:14;3.53;;;1.30;;
25249;SDS011;13201;51.148;13.738;2023-07-16T09:37:41;4.35;;;1.70;;
25249;SDS011;13201;51.148;13.738;2023-07-16T09:40:08;3.92;;;1.67;;
25249;SDS011;13201;51.148;13.738;2023-07-16T09:42:38;2.25;;;1.42;;
25249;SDS011;13201;51.148;13.738;2023-07-16T09:45:06;2.15;;;1.40;;
25249;SDS011;13201;51.148;13.738;2023-07-16T09:47:35;3.15;;;1.45;;
25249;SDS011;13201;51.148;13.738;2023-07-16T09:50:01;4.30;;;1.65;;
25249;SDS011;13201;51.148;13.738;2023-07-16T09:52:29;2.00;;;1.58;;
25249;SDS011;13201;51.148;13.738;2023-07-16T09:54:57;4.47;;;1.80;;
25249;SDS011;13201;51.148;13.738;2023-07-16T09:57:28;4.30;;;1.50;;
25249;SDS011;13201;51.148;13.738;2023-07-16T09:59:58;2.58;;;1.50;;
25249;SDS011;13201;51.148;13.738;2023-07-16T10:02:29;5.75;;;1.80;;
25249;SDS011;13201;51.148;13.738;2023-07-16T10:04:58;4.07;;;1.65;;
25249;SDS011;13201;51.148;13.738;2023-07-16T10:07:24;2.90;;;1.70;;
25249;SDS011;13201;51.148;13.738;2023-07-16T10:09:56;2.60;;;1.45;;
25249;SDS011;13201;51.148;13.738;2023-07-16T10:12:23;3.65;;;1.50;;
25249;SDS011;13201;51.148;13.738;2023-07-16T10:14:51;3.20;;;1.65;;
25249;SDS011;13201;51.148;13.738;2023-07-16T10:17:19;2.65;;;1.65;;
25249;SDS011;13201;51.148;13.738;2023-07-16T10:20:28;5.00;;;1.50;;
25249;SDS011;13201;51.148;13.738;2023-07-16T10:22:39;5.55;;;1.63;;
25249;SDS011;13201;51.148;13.738;2023-07-16T10:27:45;3.78;;;1.92;;
25249;SDS011;13201;51.148;13.738;2023-07-16T10:30:12;2.50;;;1.38;;
25249;SDS011;13201;51.148;13.738;2023-07-16T10:32:37;2.70;;;1.60;;
25249;SDS011;13201;51.148;13.738;2023-07-16T10:35:04;2.90;;;1.80;;
25249;SDS011;13201;51.148;13.738;2023-07-16T10:37:30;4.30;;;1.45;;
25249;SDS011;13201;51.148;13.738;2023-07-16T10:39:57;2.92;;;1.60;;
25249;SDS011;13201;51.148;13.738;2023-07-16T10:42:24;3.63;;;1.80;;
25249;SDS011;13201;51.148;13.738;2023-07-16T10:44:51;2.22;;;1.42;;
25249;SDS011;13201;51.148;13.738;2023-07-16T10:47:52;2.92;;;1.55;;
25249;SDS011;13201;51.148;13.738;2023-07-16T10:50:18;7.97;;;1.73;;
25249;SDS011;13201;51.148;13.738;2023-07-16T10:52:55;3.03;;;1.67;;
25249;SDS011;13201;51.148;13.738;2023-07-16T10:55:22;4.00;;;2.28;;
25249;SDS011;13201;51.148;13.738;2023-07-16T10:57:48;5.50;;;1.60;;
25249;SDS011;13201;51.148;13.738;2023-07-16T11:05:11;3.50;;;2.13;;
25249;SDS011;13201;51.148;13.738;2023-07-16T11:07:44;4.60;;;1.77;;
25249;SDS011;13201;51.148;13.738;2023-07-16T11:10:11;4.22;;;1.70;;
25249;SDS011;13201;51.148;13.738;2023-07-16T11:12:36;3.03;;;1.58;;
25249;SDS011;13201;51.148;13.738;2023-07-16T11:15:02;3.07;;;1.33;;
25249;SDS011;13201;51.148;13.738;2023-07-16T11:17:28;3.95;;;1.75;;
25249;SDS011;13201;51.148;13.738;2023-07-16T11:19:54;3.80;;;1.83;;
25249;SDS011;13201;51.148;13.738;2023-07-16T11:22:24;3.00;;;1.83;;
25249;SDS011;13201;51.148;13.738;2023-07-16T11:24:54;4.18;;;1.65;;
25249;SDS011;13201;51.148;13.738;2023-07-16T11:27:25;3.08;;;1.80;;
25249;SDS011;13201;51.148;13.738;2023-07-16T11:29:52;3.00;;;1.65;;
25249;SDS011;13201;51.148;13.738;2023-07-16T11:35:02;4.13;;;1.90;;
25249;SDS011;13201;51.148;13.738;2023-07-16T11:37:30;4.57;;;1.95;;
25249;SDS011;13201;51.148;13.738;2023-07-16T11:39:57;4.22;;;2.03;;
25249;SDS011;13201;51.148;13.738;2023-07-16T11:42:35;2.25;;;1.63;;
25249;SDS011;13201;51.148;13.738;2023-07-16T11:45:05;3.67;;;2.05;;
25249;SDS011;13201;51.148;13.738;2023-07-16T11:47:40;3.97;;;2.00;;
25249;SDS011;13201;51.148;13.738;2023-07-16T11:50:06;4.10;;;2.10;;
25249;SDS011;13201;51.148;13.738;2023-07-16T11:52:32;2.50;;;1.90;;
25249;SDS011;13201;51.148;13.738;2023-07-16T11:54:58;6.03;;;2.03;;
25249;SDS011;13201;51.148;13.738;2023-07-16T11:57:29;3.58;;;1.73;;
25249;SDS011;13201;51.148;13.738;2023-07-16T11:59:55;3.75;;;2.00;;
25249;SDS011;13201;51.148;13.738;2023-07-16T12:02:21;4.80;;;2.00;;
25249;SDS011;13201;51.148;13.738;2023-07-16T12:04:47;8.23;;;2.30;;
25249;SDS011;13201;51.148;13.738;2023-07-16T12:07:13;4.18;;;1.65;;
25249;SDS011;13201;51.148;13.738;2023-07-16T12:09:39;4.30;;;2.33;;
25249;SDS011;13201;51.148;13.738;2023-07-16T12:12:04;3.90;;;2.03;;
25249;SDS011;13201;51.148;13.738;2023-07-16T12:14:31;2.67;;;1.88;;
25249;SDS011;13201;51.148;13.738;2023-07-16T12:16:57;3.70;;;2.00;;
25249;SDS011;13201;51.148;13.738;2023-07-16T12:19:24;3.90;;;1.97;;
25249;SDS011;13201;51.148;13.738;2023-07-16T12:21:50;2.80;;;1.90;;
25249;SDS011;13201;51.148;13.738;2023-07-16T12:24:16;7.00;;;2.10;;
25249;SDS011;13201;51.148;13.738;2023-07-16T12:26:42;5.50;;;1.90;;
25249;SDS011;13201;51.148;13.738;2023-07-16T12:29:07;5.03;;;1.90;;
25249;SDS011;13201;51.148;13.738;2023-07-16T12:31:33;5.23;;;2.03;;
25249;SDS011;13201;51.148;13.738;2023-07-16T12:33:59;3.73;;;2.27;;
25249;SDS011;13201;51.148;13.738;2023-07-16T12:36:29;7.53;;;2.03;;
25249;SDS011;13201;51.148;13.738;2023-07-16T12:38:55;5.13;;;1.90;;
25249;SDS011;13201;51.148;13.738;2023-07-16T12:41:21;5.53;;;2.23;;
25249;SDS011;13201;51.148;13.738;2023-07-16T12:43:47;4.43;;;2.07;;
25249;SDS011;13201;51.148;13.738;2023-07-16T12:46:13;3.70;;;2.10;;
25249;SDS011;13201;51.148;13.738;2023-07-16T12:48:38;5.53;;;2.07;;
25249;SDS011;13201;51.148;13.738;2023-07-16T12:51:04;2.93;;;1.90;;
25249;SDS011;13201;51.148;13.738;2023-07-16T12:53:30;3.43;;;1.97;;
25249;SDS011;13201;51.148;13.738;2023-07-16T12:55:55;5.47;;;2.10;;
25249;SDS011;13201;51.148;13.738;2023-07-16T12:58:21;5.23;;;2.10;;
25249;SDS011;13201;51.148;13.738;2023-07-16T13:00:47;3.93;;;2.20;;
25249;SDS011;13201;51.148;13.738;2023-07-16T13:03:13;5.30;;;2.00;;
25249;SDS011;13201;51.148;13.738;2023-07-16T13:05:41;4.38;;;1.73;;
25249;SDS011;13201;51.148;13.738;2023-07-16T13:08:08;3.05;;;1.85;;
25249;SDS011;13201;51.148;13.738;2023-07-16T13:10:35;4.70;;;2.15;;
25249;SDS011;13201;51.148;13.738;2023-07-16T13:13:00;6.20;;;2.37;;
25249;SDS011;13201;51.148;13.738;2023-07-16T13:15:28;5.43;;;2.30;;
25249;SDS011;13201;51.148;13.738;2023-07-16T13:17:54;3.40;;;2.08;;
25249;SDS011;13201;51.148;13.738;2023-07-16T13:20:20;5.20;;;1.97;;
25249;SDS011;13201;51.148;13.738;2023-07-16T13:25:12;4.28;;;1.88;;
25249;SDS011;13201;51.148;13.738;2023-07-16T13:27:38;4.83;;;1.93;;
25249;SDS011;13201;51.148;13.738;2023-07-16T13:30:04;5.65;;;2.03;;
25249;SDS011;13201;51.148;13.738;2023-07-16T13:32:31;4.05;;;2.20;;
25249;SDS011;13201;51.148;13.738;2023-07-16T13:34:56;5.70;;;2.20;;
25249;SDS011;13201;51.148;13.738;2023-07-16T13:37:22;5.93;;;1.83;;
25249;SDS011;13201;51.148;13.738;2023-07-16T13:39:48;4.17;;;2.00;;
25249;SDS011;13201;51.148;13.738;2023-07-16T13:42:13;3.03;;;1.77;;
25249;SDS011;13201;51.148;13.738;2023-07-16T13:44:39;4.50;;;2.20;;
25249;SDS011;13201;51.148;13.738;2023-07-16T13:47:04;3.30;;;1.87;;
25249;SDS011;13201;51.148;13.738;2023-07-16T13:49:30;3.60;;;2.23;;
25249;SDS011;13201;51.148;13.738;2023-07-16T13:51:56;2.90;;;1.80;;
25249;SDS011;13201;51.148;13.738;2023-07-16T13:54:22;3.70;;;2.00;;
25249;SDS011;13201;51.148;13.738;2023-07-16T13:56:50;2.90;;;2.10;;
25249;SDS011;13201;51.148;13.738;2023-07-16T13:59:16;3.25;;;1.90;;
25249;SDS011;13201;51.148;13.738;2023-07-16T14:01:41;4.87;;;2.10;;
25249;SDS011;13201;51.148;13.738;2023-07-16T14:04:07;4.60;;;1.90;;
25249;SDS011;13201;51.148;13.738;2023-07-16T14:06:33;7.40;;;2.50;;
25249;SDS011;13201;51.148;13.738;2023-07-16T14:08:59;3.05;;;1.85;;
25249;SDS011;13201;51.148;13.738;2023-07-16T14:11:25;5.47;;;2.20;;
25249;SDS011;13201;51.148;13.738;2023-07-16T14:13:51;6.97;;;1.98;;
25249;SDS011;13201;51.148;13.738;2023-07-16T14:21:09;3.93;;;1.77;;
25249;SDS011;13201;51.148;13.738;2023-07-16T14:23:35;4.63;;;1.93;;
25249;SDS011;13201;51.148;13.738;2023-07-16T14:26:01;2.70;;;2.03;;
25249;SDS011;13201;51.148;13.738;2023-07-16T14:28:27;2.72;;;1.65;;
25249;SDS011;13201;51.148;13.738;2023-07-16T14:30:54;4.40;;;2.20;;
25249;SDS011;13201;51.148;13.738;2023-07-16T14:33:20;3.17;;;1.97;;
25249;SDS011;13201;51.148;13.738;2023-07-16T14:35:46;5.55;;;1.63;;
25249;SDS011;13201;51.148;13.738;2023-07-16T14:38:11;3.50;;;1.83;;
25249;SDS011;13201;51.148;13.738;2023-07-16T14:40:37;3.60;;;2.00;;
25249;SDS011;13201;51.148;13.738;2023-07-16T14:43:04;3.60;;;2.00;;
25249;SDS011;13201;51.148;13.738;2023-07-16T14:45:36;3.05;;;1.95;;
25249;SDS011;13201;51.148;13.738;2023-07-16T14:48:02;3.58;;;1.98;;
25249;SDS011;13201;51.148;13.738;2023-07-16T14:50:29;2.97;;;1.92;;
25249;SDS011;13201;51.148;13.738;2023-07-16T14:52:55;4.18;;;2.10;;
25249;SDS011;13201;51.148;13.738;2023-07-16T14:55:21;4.33;;;2.03;;
25249;SDS011;13201;51.148;13.738;2023-07-16T14:57:47;6.53;;;2.05;;
25249;SDS011;13201;51.148;13.738;2023-07-16T15:00:13;5.33;;;1.70;;
25249;SDS011;13201;51.148;13.738;2023-07-16T15:02:39;4.32;;;1.80;;
25249;SDS011;13201;51.148;13.738;2023-07-16T15:05:07;3.78;;;2.03;;
25249;SDS011;13201;51.148;13.738;2023-07-16T15:07:33;2.88;;;1.90;;
25249;SDS011;13201;51.148;13.738;2023-07-16T15:10:02;3.80;;;2.08;;
25249;SDS011;13201;51.148;13.738;2023-07-16T15:12:29;4.97;;;1.95;;
25249;SDS011;13201;51.148;13.738;2023-07-16T15:14:55;5.00;;;2.08;;
25249;SDS011;13201;51.148;13.738;2023-07-16T15:17:20;6.57;;;2.30;;